createdAt,value
2022-09-26T00:01:42.840Z,16.90
2022-09-26T00:04:31.835Z,17.20
2022-09-26T00:07:00.917Z,16.70
2022-09-26T00:09:29.287Z,17.40
2022-09-26T00:11:57.941Z,16.90
2022-09-26T00:14:28.857Z,17.10
2022-09-26T00:16:57.524Z,17.20
2022-09-26T00:19:26.285Z,18.00
2022-09-26T00:21:54.832Z,17.30
2022-09-26T00:24:22.990Z,17.90
2022-09-26T00:26:51.265Z,18.70
2022-09-26T00:29:19.337Z,18.30
2022-09-26T00:31:49.171Z,18.10
2022-09-26T00:34:19.420Z,18.80
2022-09-26T00:36:49.523Z,17.60
2022-09-26T00:39:17.873Z,18.10
2022-09-26T00:41:46.237Z,18.60
2022-09-26T00:44:49.404Z,17.60
2022-09-26T00:47:25.546Z,18.00
2022-09-26T00:50:01.770Z,18.00
2022-09-26T00:52:40.428Z,18.60
2022-09-26T00:55:14.214Z,19.30
2022-09-26T00:57:47.082Z,19.70
2022-09-26T01:00:15.886Z,19.60
2022-09-26T01:02:46.929Z,19.80
2022-09-26T01:05:18.705Z,19.80
2022-09-26T01:07:47.630Z,19.90
2022-09-26T01:10:16.336Z,20.70
2022-09-26T01:12:44.569Z,20.60
2022-09-26T01:15:12.849Z,20.80
2022-09-26T01:17:44.321Z,21.20
2022-09-26T01:20:28.338Z,19.60
2022-09-26T01:23:21.314Z,20.00
2022-09-26T01:26:26.635Z,19.70
2022-09-26T01:29:42.742Z,20.10
2022-09-26T01:32:48.898Z,19.90
2022-09-26T01:35:40.675Z,20.10
2022-09-26T01:38:28.850Z,20.30
2022-09-26T01:41:25.758Z,20.70
2022-09-26T01:44:15.935Z,20.60
2022-09-26T01:46:54.643Z,21.90
2022-09-26T01:49:46.333Z,21.00
2022-09-26T01:52:46.228Z,21.40
2022-09-26T01:55:28.394Z,20.90
2022-09-26T01:58:10.117Z,21.50
2022-09-26T02:00:42.568Z,21.30
2022-09-26T02:03:24.411Z,20.80
2022-09-26T02:06:02.390Z,21.30
2022-09-26T02:08:41.960Z,21.60
2022-09-26T02:11:14.131Z,22.10
2022-09-26T02:14:25.523Z,22.00
2022-09-26T02:17:00.090Z,21.00
2022-09-26T02:19:35.665Z,22.40
2022-09-26T02:22:04.241Z,21.30
2022-09-26T02:24:32.565Z,22.30
2022-09-26T02:27:01.046Z,21.40
2022-09-26T02:29:29.212Z,20.70
2022-09-26T02:32:04.468Z,21.50
2022-09-26T02:34:33.373Z,21.70
2022-09-26T02:37:02.841Z,20.70
2022-09-26T02:39:33.916Z,21.10
2022-09-26T02:42:36.878Z,21.40
2022-09-26T02:45:21.458Z,22.20
2022-09-26T02:47:58.528Z,20.50
2022-09-26T02:50:52.361Z,20.50
2022-09-26T02:53:38.721Z,20.60
2022-09-26T02:56:16.620Z,20.10
2022-09-26T02:58:50.831Z,21.00
2022-09-26T03:01:26.336Z,21.20
2022-09-26T03:04:29.866Z,21.60
2022-09-26T03:07:03.365Z,21.80
2022-09-26T03:09:33.077Z,21.90
2022-09-26T03:12:05.041Z,21.90
2022-09-26T03:14:36.594Z,22.00
2022-09-26T03:17:05.277Z,21.30
2022-09-26T03:19:45.963Z,21.70
2022-09-26T03:22:16.576Z,21.70
2022-09-26T03:24:46.194Z,21.70
2022-09-26T03:27:16.546Z,21.60
2022-09-26T03:29:46.890Z,30.80
2022-09-26T03:32:19.678Z,24.50
2022-09-26T03:34:47.828Z,24.60
2022-09-26T03:37:17.177Z,22.80
2022-09-26T03:39:45.446Z,20.90
2022-09-26T03:42:26.718Z,21.80
2022-09-26T03:44:57.162Z,20.90
2022-09-26T03:47:31.518Z,20.00
2022-09-26T03:50:00.337Z,21.00
2022-09-26T03:52:29.422Z,22.30
2022-09-26T03:54:57.746Z,22.10
2022-09-26T03:57:27.682Z,22.40
2022-09-26T04:00:04.563Z,21.80
2022-09-26T04:02:44.566Z,22.70
2022-09-26T04:05:19.954Z,22.20
2022-09-26T04:07:48.763Z,23.20
2022-09-26T04:10:17.446Z,22.20
2022-09-26T04:12:46.026Z,22.30
2022-09-26T04:15:14.518Z,22.10
2022-09-26T04:17:42.817Z,22.30
2022-09-26T04:20:11.026Z,21.50
2022-09-26T04:22:41.051Z,22.40
2022-09-26T04:25:10.416Z,22.10
2022-09-26T04:27:38.745Z,22.30
2022-09-26T04:30:07.946Z,23.50
2022-09-26T04:32:43.108Z,24.20
2022-09-26T04:35:29.674Z,22.10
2022-09-26T04:37:57.760Z,23.30
2022-09-26T04:40:26.204Z,23.50
2022-09-26T04:43:04.311Z,22.70
2022-09-26T04:45:32.501Z,22.30
2022-09-26T04:48:01.013Z,22.60
2022-09-26T04:50:29.157Z,22.10
2022-09-26T04:53:09.261Z,23.10
2022-09-26T04:55:45.360Z,26.80
2022-09-26T04:58:17.113Z,24.00
2022-09-26T05:00:47.941Z,22.60
2022-09-26T05:03:18.086Z,22.90
2022-09-26T05:05:50.548Z,22.50
2022-09-26T05:08:19.005Z,22.30
2022-09-26T05:11:02.309Z,22.70
2022-09-26T05:13:31.757Z,23.10
2022-09-26T05:16:02.362Z,22.60
2022-09-26T05:18:30.569Z,22.60
2022-09-26T05:21:00.289Z,22.30
2022-09-26T05:23:47.289Z,22.30
2022-09-26T05:26:26.015Z,23.00
2022-09-26T05:29:07.752Z,23.60
2022-09-26T05:31:48.435Z,23.80
2022-09-26T05:34:20.051Z,24.40
2022-09-26T05:36:48.656Z,23.70
2022-09-26T05:39:39.045Z,24.30
2022-09-26T05:42:11.446Z,23.00
2022-09-26T05:44:40.006Z,23.50
2022-09-26T05:47:09.249Z,24.30
2022-09-26T05:49:38.448Z,23.70
2022-09-26T05:52:06.826Z,22.90
2022-09-26T05:54:35.066Z,23.20
2022-09-26T05:57:06.758Z,24.10
2022-09-26T05:59:45.043Z,23.90
2022-09-26T06:02:26.938Z,23.20
2022-09-26T06:05:04.110Z,22.50
2022-09-26T06:08:05.295Z,23.20
2022-09-26T06:10:40.608Z,23.00
2022-09-26T06:13:08.814Z,22.80
2022-09-26T06:15:43.395Z,24.10
2022-09-26T06:18:11.569Z,22.80
2022-09-26T06:20:39.840Z,21.90
2022-09-26T06:23:07.983Z,22.20
2022-09-26T06:25:36.865Z,22.20
2022-09-26T06:28:05.574Z,23.00
2022-09-26T06:30:34.321Z,21.80
2022-09-26T06:33:11.378Z,21.50
2022-09-26T06:36:02.478Z,22.30
2022-09-26T06:38:37.006Z,21.50
2022-09-26T06:41:07.573Z,22.00
2022-09-26T06:43:35.800Z,21.60
2022-09-26T06:46:24.906Z,22.50
2022-09-26T06:48:58.998Z,21.20
2022-09-26T06:51:49.192Z,21.80
2022-09-26T06:54:18.534Z,21.00
2022-09-26T06:56:46.770Z,22.00
2022-09-26T06:59:16.892Z,22.10
2022-09-26T07:01:53.347Z,22.80
2022-09-26T07:04:54.554Z,21.30
2022-09-26T07:07:41.019Z,22.70
2022-09-26T07:10:13.617Z,22.90
2022-09-26T07:13:02.366Z,21.70
2022-09-26T07:15:33.197Z,22.10
2022-09-26T07:18:06.601Z,22.30
2022-09-26T07:20:56.618Z,21.90
2022-09-26T07:23:35.813Z,22.70
2022-09-26T07:26:04.037Z,22.70
2022-09-26T07:28:34.209Z,22.90
2022-09-26T07:31:03.298Z,22.30
2022-09-26T07:33:43.897Z,21.50
2022-09-26T07:36:13.056Z,20.70
2022-09-26T07:38:43.948Z,21.00
2022-09-26T07:41:12.413Z,21.50
2022-09-26T07:44:40.871Z,21.10
2022-09-26T07:46:49.378Z,21.90
2022-09-26T07:49:36.148Z,21.40
2022-09-26T07:52:22.667Z,20.60
2022-09-26T07:55:07.333Z,20.70
2022-09-26T07:57:46.600Z,21.20
2022-09-26T08:00:55.352Z,21.60
2022-09-26T08:03:48.292Z,22.20
2022-09-26T08:06:27.729Z,21.80
2022-09-26T08:08:55.948Z,22.00
2022-09-26T08:11:44.932Z,20.50
2022-09-26T08:14:37.607Z,20.30
2022-09-26T08:17:34.038Z,19.80
2022-09-26T08:20:04.476Z,20.00
2022-09-26T08:22:32.769Z,19.50
2022-09-26T08:25:01.099Z,20.50
2022-09-26T08:27:40.554Z,20.40
2022-09-26T08:30:10.650Z,19.60
2022-09-26T08:32:39.282Z,19.80
2022-09-26T08:35:08.430Z,20.40
2022-09-26T08:37:55.011Z,20.60
2022-09-26T08:41:34.598Z,20.70
2022-09-26T08:44:38.066Z,18.80
2022-09-26T08:47:38.641Z,19.90
2022-09-26T08:50:52.054Z,19.90
2022-09-26T08:53:27.290Z,18.70
2022-09-26T08:55:58.172Z,18.80
2022-09-26T08:58:39.446Z,18.40
2022-09-26T09:01:16.473Z,18.00
2022-09-26T09:04:13.061Z,19.30
2022-09-26T09:06:42.210Z,17.60
2022-09-26T09:09:15.294Z,18.00
2022-09-26T09:12:31.355Z,17.10
2022-09-26T09:15:29.021Z,17.90
2022-09-26T09:18:34.246Z,16.80
2022-09-26T09:21:41.575Z,15.80
2022-09-26T09:24:53.868Z,16.20
2022-09-26T09:27:53.510Z,15.90
2022-09-26T09:30:35.520Z,15.80
2022-09-26T09:33:38.406Z,15.10
2022-09-26T09:36:43.499Z,15.10
2022-09-26T09:39:36.911Z,15.40
2022-09-26T09:42:32.055Z,15.10
2022-09-26T09:45:12.619Z,14.90
2022-09-26T09:47:40.874Z,15.40
2022-09-26T09:50:44.705Z,15.00
2022-09-26T09:53:31.051Z,14.80
2022-09-26T09:56:27.687Z,14.30
2022-09-26T09:59:14.555Z,15.20
2022-09-26T10:02:37.608Z,15.90
2022-09-26T10:05:23.927Z,14.70
2022-09-26T10:07:58.740Z,15.90
2022-09-26T10:11:14.751Z,15.00
2022-09-26T10:14:06.218Z,15.00
2022-09-26T10:17:09.518Z,14.80
2022-09-26T10:20:00.929Z,14.90
2022-09-26T10:22:37.668Z,14.10
2022-09-26T10:25:18.286Z,14.10
2022-09-26T10:27:55.382Z,14.90
2022-09-26T10:30:32.088Z,14.90
2022-09-26T10:33:25.899Z,14.40
2022-09-26T10:36:33.374Z,15.30
2022-09-26T10:39:30.140Z,14.60
2022-09-26T10:41:59.749Z,14.20
2022-09-26T10:44:36.779Z,15.70
2022-09-26T10:47:17.067Z,14.90
2022-09-26T10:50:16.727Z,16.10
2022-09-26T10:53:10.922Z,16.60
2022-09-26T10:55:59.139Z,15.80
2022-09-26T10:58:29.851Z,16.10
2022-09-26T11:01:03.615Z,16.40
2022-09-26T11:03:43.482Z,15.70
2022-09-26T11:06:34.259Z,15.70
2022-09-26T11:09:21.139Z,14.00
2022-09-26T11:11:56.406Z,13.40
2022-09-26T11:14:32.769Z,14.80
2022-09-26T11:17:04.562Z,15.20
2022-09-26T11:19:53.827Z,15.70
2022-09-26T11:22:29.730Z,15.10
2022-09-26T11:25:28.329Z,14.80
2022-09-26T11:28:23.844Z,17.40
2022-09-26T11:31:30.293Z,17.70
2022-09-26T11:37:03.905Z,17.50
2022-09-26T11:40:10.133Z,18.50
2022-09-26T11:42:55.693Z,18.90
2022-09-26T11:45:39.251Z,19.00
2022-09-26T11:49:18.058Z,17.90
2022-09-26T11:52:39.401Z,19.90
2022-09-26T11:55:19.225Z,18.60
2022-09-26T11:58:03.439Z,19.40
2022-09-26T12:01:14.530Z,18.80
2022-09-26T12:04:27.430Z,18.80
2022-09-26T12:06:56.158Z,18.50
2022-09-26T12:09:50.378Z,18.90
2022-09-26T12:12:31.998Z,17.80
2022-09-26T12:15:23.882Z,17.20
2022-09-26T12:18:02.814Z,17.40
2022-09-26T12:20:38.162Z,17.00
2022-09-26T12:23:27.478Z,15.60
2022-09-26T12:25:58.492Z,16.90
2022-09-26T12:28:54.575Z,16.20
2022-09-26T12:31:48.995Z,15.20
2022-09-26T12:34:32.174Z,11.80
2022-09-26T12:37:41.711Z,14.90
2022-09-26T12:40:41.759Z,15.30
2022-09-26T12:43:27.822Z,13.80
2022-09-26T12:46:16.288Z,14.20
2022-09-26T12:49:15.844Z,14.10
2022-09-26T12:51:49.102Z,15.40
2022-09-26T12:54:48.446Z,14.00
2022-09-26T12:57:21.299Z,14.70
2022-09-26T12:59:55.299Z,15.00
2022-09-26T13:02:33.734Z,14.60
2022-09-26T13:05:23.951Z,15.20
2022-09-26T13:08:16.566Z,14.80
2022-09-26T13:11:06.090Z,15.00
2022-09-26T13:14:09.823Z,14.20
2022-09-26T13:16:49.744Z,15.00
2022-09-26T13:19:35.099Z,15.30
2022-09-26T13:22:35.123Z,15.20
2022-09-26T13:25:03.107Z,15.30
2022-09-26T13:27:38.426Z,15.90
2022-09-26T13:30:13.295Z,14.70
2022-09-26T13:33:00.147Z,14.60
2022-09-26T13:35:31.913Z,15.00
2022-09-26T13:38:18.545Z,15.30
2022-09-26T13:41:13.681Z,14.20
2022-09-26T13:44:24.151Z,15.10
2022-09-26T13:47:06.397Z,14.30
2022-09-26T13:49:51.153Z,13.90
2022-09-26T13:52:56.718Z,14.70
2022-09-26T13:55:25.547Z,14.10
2022-09-26T13:58:00.734Z,13.70
2022-09-26T14:00:31.778Z,13.40
2022-09-26T14:03:18.604Z,12.30
2022-09-26T14:05:52.822Z,12.90
2022-09-26T14:08:39.325Z,13.20
2022-09-26T14:11:18.886Z,14.10
2022-09-26T14:13:48.571Z,14.10
2022-09-26T14:16:28.829Z,14.60
2022-09-26T14:19:19.896Z,14.70
2022-09-26T14:22:30.141Z,15.10
2022-09-26T14:24:58.398Z,14.20
2022-09-26T14:27:36.477Z,14.80
2022-09-26T14:30:25.075Z,13.40
2022-09-26T14:33:02.232Z,13.70
2022-09-26T14:35:33.431Z,15.50
2022-09-26T14:38:10.057Z,14.90
2022-09-26T14:40:38.844Z,15.30
2022-09-26T14:43:14.521Z,15.70
2022-09-26T14:46:08.883Z,14.90
2022-09-26T14:48:40.221Z,13.80
2022-09-26T14:51:16.005Z,13.50
2022-09-26T14:54:00.531Z,13.80
2022-09-26T14:56:32.720Z,14.20
2022-09-26T14:59:20.110Z,14.10
2022-09-26T15:01:48.962Z,14.70
2022-09-26T15:04:24.024Z,13.90
2022-09-26T15:06:55.676Z,14.20
2022-09-26T15:09:43.544Z,14.00
2022-09-26T15:12:21.874Z,14.20
2022-09-26T15:15:04.976Z,14.90
2022-09-26T15:17:39.042Z,14.70
2022-09-26T15:20:14.020Z,15.20
2022-09-26T15:22:43.275Z,14.80
2022-09-26T15:25:33.008Z,14.70
2022-09-26T15:28:02.114Z,15.40
2022-09-26T15:30:42.084Z,14.00
2022-09-26T15:33:17.768Z,13.60
2022-09-26T15:35:55.217Z,12.20
2022-09-26T15:38:24.300Z,12.80
2022-09-26T15:41:02.907Z,12.90
2022-09-26T15:43:35.357Z,11.90
2022-09-26T15:46:08.881Z,11.30
2022-09-26T15:48:43.074Z,11.50
2022-09-26T15:51:33.217Z,10.90
2022-09-26T15:54:06.312Z,12.00
2022-09-26T15:56:45.549Z,12.60
2022-09-26T15:59:23.475Z,20.20
2022-09-26T16:02:24.673Z,23.00
2022-09-26T16:04:54.896Z,26.30
2022-09-26T16:07:28.180Z,17.40
2022-09-26T16:09:59.477Z,15.00
2022-09-26T16:12:30.436Z,13.60
2022-09-26T16:15:16.477Z,13.30
2022-09-26T16:17:52.656Z,13.80
2022-09-26T16:20:21.107Z,15.00
2022-09-26T16:22:53.908Z,14.30
2022-09-26T16:25:24.136Z,13.70
2022-09-26T16:28:01.258Z,13.60
2022-09-26T16:30:30.209Z,13.60
2022-09-26T16:33:07.717Z,13.60
2022-09-26T16:35:44.178Z,13.60
2022-09-26T16:38:15.262Z,12.90
2022-09-26T16:40:51.120Z,13.20
2022-09-26T16:43:28.778Z,12.50
2022-09-26T16:46:13.705Z,13.10
2022-09-26T16:48:52.665Z,15.30
2022-09-26T16:51:30.968Z,13.20
2022-09-26T16:54:08.273Z,13.50
2022-09-26T16:56:41.525Z,16.60
2022-09-26T16:59:17.242Z,19.40
2022-09-26T17:01:53.973Z,18.60
2022-09-26T17:04:31.061Z,18.70
2022-09-26T17:07:00.238Z,18.10
2022-09-26T17:09:30.765Z,17.50
2022-09-26T17:12:12.721Z,17.00
2022-09-26T17:14:42.753Z,16.40
2022-09-26T17:17:17.922Z,15.50
2022-09-26T17:19:47.942Z,15.40
2022-09-26T17:22:19.381Z,15.50
2022-09-26T17:24:48.718Z,14.80
2022-09-26T17:27:22.790Z,14.80
2022-09-26T17:29:52.528Z,14.30
2022-09-26T17:32:23.520Z,13.80
2022-09-26T17:34:51.847Z,15.10
2022-09-26T17:37:22.087Z,15.20
2022-09-26T17:39:50.347Z,15.40
2022-09-26T17:42:20.402Z,15.70
2022-09-26T17:44:48.575Z,15.20
2022-09-26T17:47:18.438Z,16.10
2022-09-26T17:49:56.257Z,16.90
2022-09-26T17:52:29.348Z,15.80
2022-09-26T17:55:01.461Z,15.90
2022-09-26T17:57:30.346Z,15.70
2022-09-26T18:00:05.776Z,16.20
2022-09-26T18:02:44.066Z,16.40
2022-09-26T18:05:22.999Z,16.90
2022-09-26T18:07:54.463Z,17.30
2022-09-26T18:10:31.151Z,17.00
2022-09-26T18:13:09.425Z,16.90
2022-09-26T18:15:41.446Z,17.40
2022-09-26T18:18:14.667Z,18.10
2022-09-26T18:20:45.643Z,18.60
2022-09-26T18:23:20.853Z,19.70
2022-09-26T18:25:51.949Z,20.70
2022-09-26T18:28:23.119Z,20.70
2022-09-26T18:30:57.886Z,19.90
2022-09-26T18:33:29.119Z,18.90
2022-09-26T18:35:58.426Z,19.70
2022-09-26T18:38:26.618Z,19.60
2022-09-26T18:40:58.437Z,19.30
2022-09-26T18:43:38.952Z,19.70
2022-09-26T18:46:08.319Z,18.70
2022-09-26T18:48:37.379Z,22.60
2022-09-26T18:51:05.767Z,21.00
2022-09-26T18:53:37.559Z,20.10
2022-09-26T18:56:25.362Z,19.00
2022-09-26T18:58:53.812Z,20.10
2022-09-26T19:01:27.799Z,18.60
2022-09-26T19:03:59.066Z,18.10
2022-09-26T19:06:34.857Z,17.00
2022-09-26T19:09:06.496Z,17.60
2022-09-26T19:11:35.310Z,18.70
2022-09-26T19:14:18.483Z,19.60
2022-09-26T19:16:49.113Z,20.00
2022-09-26T19:19:18.036Z,19.70
2022-09-26T19:21:48.808Z,20.20
2022-09-26T19:24:22.754Z,18.90
2022-09-26T19:26:57.504Z,18.60
2022-09-26T19:29:49.159Z,19.70
2022-09-26T19:32:21.652Z,19.30
2022-09-26T19:34:54.542Z,19.30
2022-09-26T19:37:23.529Z,19.20
2022-09-26T19:39:51.876Z,20.10
2022-09-26T19:42:20.074Z,19.10
2022-09-26T19:44:49.294Z,17.80
2022-09-26T19:47:23.751Z,18.10
2022-09-26T19:49:53.009Z,18.10
2022-09-26T19:52:21.302Z,18.00
2022-09-26T19:54:49.694Z,17.20
2022-09-26T19:57:20.610Z,16.70
2022-09-26T19:59:50.105Z,15.70
2022-09-26T20:02:21.024Z,15.10
2022-09-26T20:04:49.239Z,12.80
2022-09-26T20:07:19.874Z,12.30
2022-09-26T20:09:48.409Z,12.60
2022-09-26T20:12:16.629Z,13.10
2022-09-26T20:14:44.688Z,12.90
2022-09-26T20:17:22.361Z,12.40
2022-09-26T20:19:53.163Z,13.10
2022-09-26T20:22:24.705Z,12.10
2022-09-26T20:24:57.221Z,13.10
2022-09-26T20:27:30.665Z,13.40
2022-09-26T20:30:17.197Z,13.50
2022-09-26T20:32:46.228Z,12.60
2022-09-26T20:35:15.048Z,13.10
2022-09-26T20:37:44.318Z,13.30
2022-09-26T20:40:18.179Z,13.60
2022-09-26T20:42:50.336Z,14.20
2022-09-26T20:45:23.025Z,12.80
2022-09-26T20:47:51.231Z,13.20
2022-09-26T20:50:20.870Z,12.30
2022-09-26T20:52:49.626Z,14.70
2022-09-26T20:55:19.726Z,20.70
2022-09-26T20:57:48.879Z,15.80
2022-09-26T21:00:20.102Z,16.00
2022-09-26T21:02:52.338Z,15.00
2022-09-26T21:05:24.758Z,15.40
2022-09-26T21:07:54.764Z,14.80
2022-09-26T21:10:32.597Z,12.90
2022-09-26T21:13:01.177Z,12.90
2022-09-26T21:15:31.683Z,12.20
2022-09-26T21:18:01.235Z,11.50
2022-09-26T21:20:32.651Z,11.30
2022-09-26T21:23:09.050Z,12.00
2022-09-26T21:25:40.122Z,12.20
2022-09-26T21:28:26.731Z,11.60
2022-09-26T21:31:00.600Z,11.20
2022-09-26T21:33:29.169Z,12.20
2022-09-26T21:35:58.303Z,12.20
2022-09-26T21:38:27.261Z,10.90
2022-09-26T21:40:59.788Z,10.80
2022-09-26T21:43:31.492Z,11.80
2022-09-26T21:45:59.757Z,12.90
2022-09-26T21:48:28.339Z,13.70
2022-09-26T21:50:58.650Z,14.10
2022-09-26T21:53:32.175Z,14.70
2022-09-26T21:56:07.815Z,15.20
2022-09-26T21:58:40.309Z,15.70
2022-09-26T22:01:09.687Z,14.60
2022-09-26T22:03:38.002Z,14.90
2022-09-26T22:06:09.370Z,13.80
2022-09-26T22:08:39.475Z,14.50
2022-09-26T22:11:11.415Z,14.80
2022-09-26T22:13:39.642Z,13.10
2022-09-26T22:16:11.363Z,13.70
2022-09-26T22:18:40.359Z,13.30
2022-09-26T22:21:10.878Z,13.30
2022-09-26T22:23:39.466Z,12.90
2022-09-26T22:26:08.042Z,12.90
2022-09-26T22:28:36.495Z,13.70
2022-09-26T22:31:06.709Z,13.60
2022-09-26T22:33:35.004Z,14.20
2022-09-26T22:36:04.292Z,14.00
2022-09-26T22:38:36.476Z,15.60
2022-09-26T22:41:06.645Z,14.80
2022-09-26T22:43:36.102Z,15.60
2022-09-26T22:46:11.414Z,16.00
2022-09-26T22:48:43.657Z,17.20
2022-09-26T22:51:12.410Z,17.30
2022-09-26T22:53:42.093Z,17.70
2022-09-26T22:56:13.739Z,18.00
2022-09-26T22:58:44.189Z,17.60
2022-09-26T23:01:15.216Z,18.60
2022-09-26T23:03:43.397Z,18.70
2022-09-26T23:06:12.339Z,17.00
2022-09-26T23:08:40.765Z,16.50
2022-09-26T23:11:11.967Z,16.00
2022-09-26T23:13:40.200Z,16.00
2022-09-26T23:16:14.283Z,16.40
2022-09-26T23:18:43.743Z,17.10
2022-09-26T23:21:14.036Z,16.10
2022-09-26T23:23:43.916Z,15.70
2022-09-26T23:26:17.678Z,16.50
2022-09-26T23:31:14.669Z,15.40
2022-09-26T23:33:43.177Z,15.70
2022-09-26T23:36:11.587Z,16.70
2022-09-26T23:38:40.955Z,17.20
2022-09-26T23:41:10.800Z,17.20
2022-09-26T23:43:39.616Z,17.20
2022-09-26T23:46:08.653Z,17.00
2022-09-26T23:48:37.301Z,18.10
2022-09-26T23:51:06.535Z,18.20
2022-09-26T23:53:35.147Z,17.40
2022-09-26T23:56:04.855Z,17.80
2022-09-26T23:58:33.352Z,19.10
